FZNA

Goma International Airport

Airport
ICAO code
FZNA
IATA Code
GOM
Summary
ICAO Region
AFI
Location

, Nord-Kivu

Serving
Goma
Elevation
5089 ft
Coordinates
1° 40' 15" S , 29° 14' 18" E
Metar
FZNA 271900Z 05008KT 6000 SCT016 19/15 Q1022 NOSIG

Runways

Designator Length Width Surface Rops
18/36 1995 45 ASP No/No

Airport map

Aerial View

SKYbrary Partners:

Safety knowledge contributed by: